This is the latest recevied weather packets stored in our database for station/object GCEMA. If no packets are shown the sender has not sent any weather packets the latest 10 day(s).
| Time | Temp. | Humidity | Pressure | Rain* | Wind** | Luminosity | Snow |
|---|---|---|---|---|---|---|---|
| 1777889518 | 15.56° C | - | 1005.9 hPa | 0 mm | 0 m/s | - | - |
| 1777889338 | 15° C | - | 1006.2 hPa | 0 mm | 0 m/s | - | - |
| 1777889159 | 15° C | - | 1006.3 hPa | 0 mm | 0 m/s | - | - |
| 1777888979 | 15° C | - | 1006.5 hPa | 0 mm | 0 m/s | - | - |
| 1777888797 | 14.44° C | - | 1006.6 hPa | 0 mm | 0 m/s | - | - |
| 1777888617 | 15° C | - | 1006.7 hPa | 0 mm | 0 m/s | - | - |
| 1777888438 | 15° C | - | 1006.7 hPa | 0 mm | 0 m/s | - | - |
| 1777888258 | 16.67° C | - | 1006.5 hPa | 0 mm | 0 m/s | - | - |
| 1777888079 | 17.22° C | - | 1006.4 hPa | 0 mm | 0 m/s | - | - |
| 1777887896 | 17.22° C | - | 1006.3 hPa | 0 mm | 0 m/s | - | - |
| 1777887717 | 17.22° C | - | 1006.3 hPa | 0 mm | 0 m/s | - | - |
| 1777887538 | 17.78° C | - | 1006.2 hPa | 0 mm | 0 m/s | - | - |
| 1777887358 | 17.78° C | - | 1006.1 hPa | 0 mm | 0 m/s | - | - |
| 1777887179 | 17.78° C | - | 1006.3 hPa | 0 mm | 0 m/s | - | - |
| 1777886996 | 17.22° C | - | 1006.2 hPa | 0 mm | 0 m/s | - | - |
| 1777886817 | 17.22° C | - | 1006.2 hPa | 0 mm | 0 m/s | - | - |
| 1777886637 | 17.78° C | - | 1006.3 hPa | 0 mm | 0 m/s | - | - |
| 1777886458 | 17.78° C | - | 1006.3 hPa | 0 mm | 0 m/s | - | - |
| 1777886278 | 17.22° C | - | 1006.3 hPa | 0 mm | 0 m/s | - | - |
| 1777886095 | 17.22° C | - | 1006.3 hPa | 0 mm | 0 m/s | - | - |
| 1777885916 | 17.22° C | - | 1006.4 hPa | 0 mm | 0 m/s | - | - |
| 1777885195 | 16.67° C | - | 1006.8 hPa | 0 mm | 0 m/s | - | - |
| 1777885016 | 16.67° C | - | 1006.8 hPa | 0 mm | 0 m/s | - | - |
| 1777884836 | 16.11° C | - | 1006.9 hPa | 0 mm | 0 m/s | - | - |
| 1777884657 | 16.67° C | - | 1006.8 hPa | 0 mm | 0 m/s | - | - |
* Rain latest hour (hover to see other rain measurements)
** Current wind speed in m/s (hover to see current wind gust speed)